createdAt,value
2018-09-11T00:00:05.605Z,0
2018-09-11T00:01:06.092Z,0
2018-09-11T00:02:05.836Z,0
2018-09-11T00:03:06.089Z,0
2018-09-11T00:04:05.586Z,0
2018-09-11T00:05:05.827Z,0
2018-09-11T00:06:05.627Z,0
2018-09-11T00:07:06.073Z,0
2018-09-11T00:08:06.072Z,0
2018-09-11T00:09:06.060Z,0
2018-09-11T00:10:05.546Z,0
2018-09-11T00:11:05.806Z,0
2018-09-11T00:12:06.045Z,0
2018-09-11T00:13:05.782Z,0
2018-09-11T00:14:05.781Z,0
2018-09-11T00:15:05.516Z,0
2018-09-11T00:16:05.783Z,0
2018-09-11T00:17:05.783Z,0
2018-09-11T00:18:05.505Z,0
2018-09-11T00:19:06.012Z,0
2018-09-11T00:20:05.756Z,0
2018-09-11T00:21:05.741Z,0
2018-09-11T00:22:05.481Z,0
2018-09-11T00:23:05.477Z,0
2018-09-11T00:24:05.731Z,0
2018-09-11T00:25:05.728Z,0
2018-09-11T00:26:05.732Z,0
2018-09-11T00:27:05.969Z,0
2018-09-11T00:28:05.965Z,0
2018-09-11T00:29:05.960Z,0
2018-09-11T00:30:05.443Z,0
2018-09-11T00:31:05.955Z,0
2018-09-11T00:32:05.440Z,0
2018-09-11T00:33:05.699Z,0
2018-09-11T00:34:05.692Z,0
2018-09-11T00:35:05.949Z,0
2018-09-11T00:36:05.672Z,0
2018-09-11T00:37:05.670Z,0
2018-09-11T00:38:05.925Z,0
2018-09-11T00:39:05.939Z,0
2018-09-11T00:40:05.395Z,0
2018-09-11T00:41:05.649Z,0
2018-09-11T00:42:05.904Z,0
2018-09-11T00:43:05.887Z,0
2018-09-11T00:44:05.630Z,0
2018-09-11T00:45:05.626Z,0
2018-09-11T00:46:05.614Z,0
2018-09-11T00:47:05.866Z,0
2018-09-11T00:48:05.606Z,0
2018-09-11T00:49:05.858Z,0
2018-09-11T00:50:05.873Z,0
2018-09-11T00:51:05.595Z,0
2018-09-11T00:52:06.361Z,0
2018-09-11T00:53:05.837Z,0
2018-09-11T00:54:05.844Z,0
2018-09-11T00:55:05.843Z,0
2018-09-11T00:56:05.831Z,0
2018-09-11T00:57:05.557Z,0
2018-09-11T00:58:05.551Z,0
2018-09-11T00:59:05.807Z,0
2018-09-11T01:00:05.812Z,0
2018-09-11T01:01:05.540Z,0
2018-09-11T01:02:05.797Z,0
2018-09-11T01:03:05.789Z,0
2018-09-11T01:04:05.269Z,0
2018-09-11T01:05:05.783Z,0
2018-09-11T01:06:05.555Z,0
2018-09-11T01:07:05.759Z,0
2018-09-11T01:08:05.762Z,0
2018-09-11T01:09:05.761Z,0
2018-09-11T01:10:05.972Z,0
2018-09-11T01:11:05.740Z,0
2018-09-11T01:12:05.478Z,0
2018-09-11T01:13:05.732Z,0
2018-09-11T01:14:05.725Z,0
2018-09-11T01:15:05.464Z,0
2018-09-11T01:16:05.716Z,0
2018-09-11T01:17:05.455Z,0
2018-09-11T01:18:05.446Z,0
2018-09-11T01:19:05.699Z,0
2018-09-11T01:20:05.438Z,0
2018-09-11T01:21:05.685Z,0
2018-09-11T01:22:05.690Z,0
2018-09-11T01:23:05.670Z,0
2018-09-11T01:24:05.677Z,0
2018-09-11T01:25:05.666Z,0
2018-09-11T01:26:05.402Z,0
2018-09-11T01:27:05.661Z,0
2018-09-11T01:28:05.641Z,0
2018-09-11T01:29:05.385Z,0
2018-09-11T01:30:05.382Z,0
2018-09-11T01:31:05.644Z,0
2018-09-11T01:32:05.631Z,0
2018-09-11T01:33:05.629Z,0
2018-09-11T01:34:05.356Z,0
2018-09-11T01:35:05.634Z,0
2018-09-11T01:36:05.349Z,0
2018-09-11T01:37:05.343Z,0
2018-09-11T01:38:05.332Z,0
2018-09-11T01:39:05.581Z,0
2018-09-11T01:40:05.594Z,0
2018-09-11T01:41:05.580Z,0
2018-09-11T01:42:05.057Z,0
2018-09-11T01:43:05.308Z,0
2018-09-11T01:44:05.562Z,0
2018-09-11T01:45:05.575Z,0
2018-09-11T01:46:05.295Z,0
2018-09-11T01:47:05.531Z,0
2018-09-11T01:48:05.529Z,0
2018-09-11T01:49:05.285Z,0
2018-09-11T01:50:05.317Z,0
2018-09-11T01:51:05.522Z,0
2018-09-11T01:52:05.509Z,0
2018-09-11T01:53:04.989Z,0
2018-09-11T01:54:04.986Z,0
2018-09-11T01:55:05.230Z,0
2018-09-11T01:56:05.482Z,0
2018-09-11T01:57:05.489Z,0
2018-09-11T01:58:05.225Z,0
2018-09-11T01:59:05.218Z,0
2018-09-11T02:00:05.199Z,0
2018-09-11T02:01:05.448Z,0
2018-09-11T02:02:05.450Z,0
2018-09-11T02:03:05.189Z,0
2018-09-11T02:04:04.921Z,0
2018-09-11T02:05:05.427Z,0
2018-09-11T02:06:05.167Z,0
2018-09-11T02:07:05.430Z,0
2018-09-11T02:08:05.158Z,0
2018-09-11T02:09:04.894Z,0
2018-09-11T02:10:05.403Z,0
2018-09-11T02:11:05.401Z,0
2018-09-11T02:12:05.402Z,0
2018-09-11T02:13:05.385Z,0
2018-09-11T02:14:05.115Z,0
2018-09-11T02:15:05.378Z,0
2018-09-11T02:16:05.370Z,0
2018-09-11T02:17:05.353Z,0
2018-09-11T02:18:04.837Z,0
2018-09-11T02:19:05.083Z,0
2018-09-11T02:20:05.332Z,0
2018-09-11T02:21:05.330Z,0
2018-09-11T02:22:05.067Z,0
2018-09-11T02:23:05.054Z,0
2018-09-11T02:24:04.796Z,0
2018-09-11T02:25:04.794Z,0
2018-09-11T02:26:04.524Z,0
2018-09-11T02:27:05.293Z,0
2018-09-11T02:28:05.286Z,0
2018-09-11T02:29:05.269Z,0
2018-09-11T02:30:05.290Z,0
2018-09-11T02:31:05.006Z,0
2018-09-11T02:32:05.282Z,0
2018-09-11T02:33:05.255Z,0
2018-09-11T02:34:04.995Z,0
2018-09-11T02:35:04.465Z,0
2018-09-11T02:36:05.238Z,0
2018-09-11T02:37:04.975Z,0
2018-09-11T02:38:04.961Z,0
2018-09-11T02:39:05.211Z,0
2018-09-11T02:40:04.942Z,0
2018-09-11T02:41:04.937Z,0
2018-09-11T02:42:05.192Z,0
2018-09-11T02:43:05.180Z,0
2018-09-11T02:44:05.184Z,0
2018-09-11T02:45:05.160Z,0
2018-09-11T02:46:05.157Z,0
2018-09-11T02:47:04.907Z,0
2018-09-11T02:48:05.150Z,0
2018-09-11T02:49:05.142Z,0
2018-09-11T02:50:05.140Z,0
2018-09-11T02:51:05.130Z,0
2018-09-11T02:52:04.863Z,0
2018-09-11T02:53:04.867Z,0
2018-09-11T02:54:05.110Z,0
2018-09-11T02:55:04.588Z,0
2018-09-11T02:56:05.092Z,0
2018-09-11T02:57:04.572Z,0
2018-09-11T02:58:05.091Z,0
2018-09-11T02:59:05.086Z,0
2018-09-11T03:00:04.609Z,0
2018-09-11T03:01:05.051Z,0
2018-09-11T03:02:04.793Z,0
2018-09-11T03:03:05.045Z,0
2018-09-11T03:04:04.526Z,0
2018-09-11T03:05:05.035Z,0
2018-09-11T03:06:04.524Z,0
2018-09-11T03:07:04.757Z,0
2018-09-11T03:08:05.008Z,0
2018-09-11T03:09:04.743Z,0
2018-09-11T03:10:04.736Z,0
2018-09-11T03:11:04.984Z,0
2018-09-11T03:12:04.728Z,0
2018-09-11T03:13:04.971Z,0
2018-09-11T03:14:04.446Z,0
2018-09-11T03:15:04.960Z,0
2018-09-11T03:16:04.947Z,0
2018-09-11T03:17:04.687Z,0
2018-09-11T03:18:04.939Z,0
2018-09-11T03:19:04.563Z,0
2018-09-11T03:20:04.928Z,0
2018-09-11T03:21:04.400Z,0
2018-09-11T03:22:04.906Z,0
2018-09-11T03:23:04.390Z,0
2018-09-11T03:24:04.638Z,0
2018-09-11T03:25:04.629Z,0
2018-09-11T03:26:04.364Z,0
2018-09-11T03:27:04.355Z,0
2018-09-11T03:28:04.614Z,0
2018-09-11T03:29:04.604Z,0
2018-09-11T03:30:04.340Z,0
2018-09-11T03:31:04.900Z,0
2018-09-11T03:32:04.583Z,0
2018-09-11T03:33:04.311Z,0
2018-09-11T03:34:04.574Z,0
2018-09-11T03:35:04.296Z,0
2018-09-11T03:36:04.802Z,0
2018-09-11T03:37:04.280Z,0
2018-09-11T03:38:04.583Z,0
2018-09-11T03:39:04.280Z,0
2018-09-11T03:40:04.523Z,0
2018-09-11T03:41:04.510Z,0
2018-09-11T03:42:04.512Z,0
2018-09-11T03:43:04.239Z,0
2018-09-11T03:44:04.894Z,0
2018-09-11T03:45:04.479Z,0
2018-09-11T03:46:04.470Z,0
2018-09-11T03:47:04.738Z,0
2018-09-11T03:48:04.459Z,0
2018-09-11T03:49:04.453Z,0
2018-09-11T03:50:04.450Z,0
2018-09-11T03:51:04.174Z,0
2018-09-11T03:52:04.424Z,0
2018-09-11T03:53:04.683Z,0
2018-09-11T03:54:04.416Z,0
2018-09-11T03:55:04.409Z,0
2018-09-11T03:56:04.404Z,0
2018-09-11T03:57:04.396Z,0
2018-09-11T03:58:04.644Z,0
2018-09-11T03:59:04.129Z,0
2018-09-11T04:00:04.368Z,0
2018-09-11T04:01:04.371Z,0
2018-09-11T04:02:04.354Z,0
2018-09-11T04:03:04.608Z,0
2018-09-11T04:04:04.336Z,0
2018-09-11T04:05:04.073Z,0
2018-09-11T04:06:04.326Z,0
2018-09-11T04:07:04.313Z,0
2018-09-11T04:08:04.319Z,0
2018-09-11T04:09:04.302Z,0
2018-09-11T04:10:04.553Z,0
2018-09-11T04:11:04.279Z,0
2018-09-11T04:12:04.272Z,0
2018-09-11T04:13:04.269Z,4
2018-09-11T04:14:04.527Z,4
2018-09-11T04:15:04.527Z,4
2018-09-11T04:16:04.245Z,4
2018-09-11T04:17:04.498Z,4
2018-09-11T04:18:04.238Z,4
2018-09-11T04:19:04.519Z,8
2018-09-11T04:20:04.217Z,4
2018-09-11T04:21:04.239Z,8
2018-09-11T04:22:03.958Z,8
2018-09-11T04:23:04.192Z,8
2018-09-11T04:24:04.449Z,12
2018-09-11T04:25:04.435Z,12
2018-09-11T04:26:04.181Z,16
2018-09-11T04:27:04.425Z,20
2018-09-11T04:28:04.421Z,24
2018-09-11T04:29:04.161Z,28
2018-09-11T04:30:04.149Z,32
2018-09-11T04:31:03.879Z,36
2018-09-11T04:32:04.129Z,40
2018-09-11T04:33:04.121Z,44
2018-09-11T04:34:04.377Z,52
2018-09-11T04:35:04.110Z,60
2018-09-11T04:36:04.101Z,68
2018-09-11T04:37:04.098Z,72
2018-09-11T04:38:04.342Z,84
2018-09-11T04:39:04.078Z,92
2018-09-11T04:40:04.328Z,100
2018-09-11T04:41:03.818Z,108
2018-09-11T04:42:04.323Z,120
2018-09-11T04:43:04.388Z,128
2018-09-11T04:44:04.041Z,140
2018-09-11T04:45:04.291Z,152
2018-09-11T04:46:04.028Z,168
2018-09-11T04:47:04.022Z,180
2018-09-11T04:48:04.029Z,196
2018-09-11T04:49:04.267Z,212
2018-09-11T04:50:04.260Z,224
2018-09-11T04:51:03.993Z,240
2018-09-11T04:52:03.985Z,256
2018-09-11T04:53:04.240Z,272
2018-09-11T04:54:03.713Z,292
2018-09-11T04:55:04.231Z,312
2018-09-11T04:56:04.500Z,336
2018-09-11T04:57:04.206Z,356
2018-09-11T04:58:03.946Z,376
2018-09-11T04:59:04.198Z,392
2018-09-11T05:00:04.187Z,408
2018-09-11T05:01:03.917Z,428
2018-09-11T05:02:03.662Z,448
2018-09-11T05:03:03.911Z,472
2018-09-11T05:04:04.156Z,500
2018-09-11T05:05:03.893Z,536
2018-09-11T05:06:03.892Z,580
2018-09-11T05:07:04.137Z,652
2018-09-11T05:08:03.869Z,744
2018-09-11T05:09:04.122Z,828
2018-09-11T05:10:03.854Z,896
2018-09-11T05:11:04.105Z,940
2018-09-11T05:12:03.838Z,976
2018-09-11T05:13:04.092Z,1024
2018-09-11T05:14:03.825Z,1084
2018-09-11T05:15:03.562Z,1160
2018-09-11T05:16:03.808Z,1240
2018-09-11T05:17:04.066Z,1348
2018-09-11T05:18:03.804Z,1480
2018-09-11T05:19:04.220Z,1640
2018-09-11T05:20:04.047Z,1724
2018-09-11T05:21:04.040Z,1824
2018-09-11T05:22:03.771Z,1944
2018-09-11T05:23:03.765Z,2048
2018-09-11T05:24:04.051Z,2164
2018-09-11T05:25:03.751Z,2228
2018-09-11T05:26:03.746Z,2260
2018-09-11T05:27:03.478Z,2276
2018-09-11T05:28:03.988Z,2320
2018-09-11T05:29:03.720Z,2328
2018-09-11T05:30:03.715Z,2308
2018-09-11T05:31:03.732Z,2292
2018-09-11T05:32:03.703Z,2268
2018-09-11T05:33:03.698Z,2264
2018-09-11T05:34:03.687Z,2224
2018-09-11T05:35:03.937Z,2196
2018-09-11T05:36:03.678Z,2228
2018-09-11T05:37:03.926Z,2244
2018-09-11T05:38:03.937Z,2264
2018-09-11T05:39:03.919Z,2264
2018-09-11T05:40:03.652Z,2204
2018-09-11T05:41:03.894Z,2072
2018-09-11T05:42:03.895Z,1996
2018-09-11T05:43:03.889Z,1908
2018-09-11T05:44:03.877Z,1920
2018-09-11T05:45:03.620Z,1996
2018-09-11T05:46:03.612Z,2044
2018-09-11T05:47:03.733Z,2120
2018-09-11T05:48:03.860Z,2204
2018-09-11T05:49:03.591Z,2216
2018-09-11T05:50:03.858Z,2224
2018-09-11T05:51:03.571Z,2236
2018-09-11T05:52:03.854Z,2240
2018-09-11T05:53:03.822Z,2232
2018-09-11T05:54:03.809Z,2236
2018-09-11T05:55:03.802Z,2264
2018-09-11T05:56:03.794Z,2272
2018-09-11T05:57:03.543Z,2296
2018-09-11T05:58:03.790Z,2288
2018-09-11T05:59:03.824Z,2316
2018-09-11T06:00:03.780Z,2328
2018-09-11T06:01:03.772Z,2336
2018-09-11T06:02:03.501Z,2356
2018-09-11T06:03:03.750Z,2376
2018-09-11T06:04:03.492Z,2384
2018-09-11T06:05:03.488Z,2408
2018-09-11T06:06:03.748Z,2408
2018-09-11T06:07:03.745Z,2416
2018-09-11T06:08:03.724Z,2408
2018-09-11T06:09:03.730Z,2436
2018-09-11T06:10:03.459Z,2492
2018-09-11T06:11:03.186Z,2528
2018-09-11T06:12:03.696Z,2572
2018-09-11T06:13:03.690Z,2608
2018-09-11T06:14:03.686Z,2648
2018-09-11T06:15:03.414Z,2704
2018-09-11T06:16:03.157Z,2744
2018-09-11T06:17:03.658Z,2772
2018-09-11T06:18:03.406Z,2808
2018-09-11T06:19:03.133Z,2920
2018-09-11T06:20:03.389Z,2988
2018-09-11T06:21:03.386Z,3044
2018-09-11T06:22:03.626Z,3084
2018-09-11T06:23:03.662Z,3064
2018-09-11T06:24:03.619Z,3072
2018-09-11T06:25:03.614Z,3124
2018-09-11T06:26:03.755Z,3220
2018-09-11T06:27:03.657Z,3220
2018-09-11T06:28:03.590Z,3144
2018-09-11T06:29:03.136Z,2940
2018-09-11T06:30:03.332Z,2852
2018-09-11T06:31:03.325Z,2928
2018-09-11T06:32:03.321Z,3056
2018-09-11T06:33:03.569Z,3208
2018-09-11T06:34:03.561Z,3384
2018-09-11T06:35:03.296Z,3540
2018-09-11T06:36:03.301Z,3824
2018-09-11T06:37:03.322Z,4220
2018-09-11T06:38:03.541Z,4660
2018-09-11T06:39:03.280Z,4768
2018-09-11T06:40:03.012Z,4624
2018-09-11T06:41:03.656Z,4508
2018-09-11T06:42:03.526Z,4380
2018-09-11T06:43:03.256Z,4092
2018-09-11T06:44:03.248Z,3792
2018-09-11T06:45:02.989Z,3640
2018-09-11T06:46:03.235Z,3368
2018-09-11T06:47:03.720Z,2988
2018-09-11T06:48:02.979Z,2796
2018-09-11T06:49:03.479Z,2828
2018-09-11T06:50:03.473Z,2932
2018-09-11T06:51:03.220Z,3096
2018-09-11T06:52:03.221Z,3280
2018-09-11T06:53:02.956Z,3448
2018-09-11T06:54:03.460Z,3592
2018-09-11T06:55:03.449Z,3736
2018-09-11T06:56:03.193Z,3824
2018-09-11T06:57:03.443Z,3920
2018-09-11T06:58:03.237Z,3856
2018-09-11T06:59:03.430Z,3828
2018-09-11T07:00:03.444Z,3832
2018-09-11T07:01:03.169Z,3848
2018-09-11T07:02:03.957Z,3692
2018-09-11T07:03:02.899Z,3512
2018-09-11T07:04:03.160Z,3444
2018-09-11T07:05:03.142Z,3476
2018-09-11T07:06:03.154Z,3416
2018-09-11T07:07:03.136Z,3528
2018-09-11T07:08:03.401Z,3548
2018-09-11T07:09:03.393Z,3648
2018-09-11T07:10:03.385Z,3720
2018-09-11T07:11:03.117Z,3828
2018-09-11T07:12:03.386Z,3940
2018-09-11T07:13:03.376Z,4068
2018-09-11T07:14:03.377Z,4172
2018-09-11T07:15:03.101Z,4176
2018-09-11T07:16:02.849Z,4192
2018-09-11T07:17:03.360Z,4160
2018-09-11T07:18:03.092Z,4128
2018-09-11T07:19:03.345Z,4168
2018-09-11T07:20:04.577Z,4152
2018-09-11T07:21:03.088Z,4180
2018-09-11T07:22:03.075Z,4228
2018-09-11T07:23:03.332Z,4300
2018-09-11T07:24:03.070Z,4424
2018-09-11T07:25:03.322Z,4512
2018-09-11T07:26:02.874Z,4552
2018-09-11T07:27:03.060Z,4540
2018-09-11T07:28:03.309Z,4468
2018-09-11T07:29:03.351Z,4352
2018-09-11T07:30:03.062Z,4204
2018-09-11T07:31:03.323Z,4132
2018-09-11T07:32:03.300Z,4040
2018-09-11T07:33:03.306Z,3968
2018-09-11T07:34:03.294Z,4000
2018-09-11T07:35:03.040Z,4000
2018-09-11T07:36:02.771Z,3948
2018-09-11T07:37:03.019Z,3872
2018-09-11T07:38:03.622Z,3856
2018-09-11T07:39:02.763Z,3860
2018-09-11T07:40:03.011Z,3908
2018-09-11T07:41:03.268Z,3772
2018-09-11T07:42:03.017Z,3828
2018-09-11T07:43:03.269Z,3944
2018-09-11T07:44:03.260Z,4056
2018-09-11T07:45:03.259Z,4220
2018-09-11T07:46:03.248Z,4348
2018-09-11T07:47:03.256Z,4404
2018-09-11T07:48:02.730Z,4424
2018-09-11T07:49:02.985Z,4516
2018-09-11T07:50:03.246Z,4540
2018-09-11T07:51:02.720Z,4512
2018-09-11T07:52:03.236Z,4400
2018-09-11T07:53:03.768Z,4340
2018-09-11T07:54:03.225Z,4312
2018-09-11T07:55:03.229Z,4328
2018-09-11T07:56:03.228Z,4364
2018-09-11T07:57:02.704Z,4304
2018-09-11T07:58:03.241Z,4388
2018-09-11T07:59:02.958Z,4428
2018-09-11T08:00:02.957Z,4512
2018-09-11T08:01:03.203Z,4500
2018-09-11T08:02:03.200Z,4540
2018-09-11T08:03:02.794Z,4784
2018-09-11T08:04:02.936Z,4932
2018-09-11T08:05:03.242Z,5068
2018-09-11T08:06:02.679Z,5188
2018-09-11T08:07:02.942Z,5228
2018-09-11T08:08:03.204Z,5388
2018-09-11T08:09:03.189Z,5428
2018-09-11T08:10:02.669Z,5504
2018-09-11T08:11:02.666Z,5380
2018-09-11T08:12:03.115Z,5460
2018-09-11T08:13:03.181Z,5496
2018-09-11T08:14:03.183Z,5548
2018-09-11T08:15:03.178Z,5768
2018-09-11T08:16:02.917Z,5728
2018-09-11T08:17:03.163Z,5396
2018-09-11T08:18:02.906Z,5372
2018-09-11T08:19:02.904Z,5548
2018-09-11T08:20:03.743Z,5584
2018-09-11T08:21:03.157Z,5540
2018-09-11T08:22:02.650Z,5460
2018-09-11T08:23:03.149Z,5444
2018-09-11T08:24:03.157Z,5524
2018-09-11T08:25:02.900Z,6004
2018-09-11T08:26:02.887Z,6092
2018-09-11T08:27:02.633Z,5872
2018-09-11T08:28:03.145Z,5260
2018-09-11T08:29:03.142Z,4912
2018-09-11T08:30:03.148Z,4656
2018-09-11T08:31:03.133Z,4676
2018-09-11T08:32:02.877Z,4944
2018-09-11T08:33:02.628Z,5432
2018-09-11T08:34:02.876Z,6056
2018-09-11T08:35:02.885Z,6840
2018-09-11T08:36:02.873Z,7560
2018-09-11T08:37:03.126Z,8196
2018-09-11T08:38:03.129Z,9016
2018-09-11T08:39:02.867Z,9496
2018-09-11T08:40:02.870Z,9664
2018-09-11T08:41:02.980Z,9700
2018-09-11T08:42:02.864Z,9732
2018-09-11T08:43:02.604Z,9312
2018-09-11T08:44:03.122Z,8816
2018-09-11T08:45:02.860Z,8412
2018-09-11T08:46:02.859Z,7956
2018-09-11T08:47:02.858Z,7468
2018-09-11T08:48:02.861Z,7020
2018-09-11T08:49:02.856Z,6612
2018-09-11T08:50:02.851Z,6276
2018-09-11T08:51:02.854Z,6052
2018-09-11T08:52:03.219Z,5832
2018-09-11T08:53:03.104Z,5800
2018-09-11T08:54:03.099Z,5776
2018-09-11T08:55:02.840Z,5600
2018-09-11T08:56:03.096Z,5300
2018-09-11T08:57:02.834Z,4952
2018-09-11T08:58:03.097Z,4644
2018-09-11T08:59:02.604Z,4584
2018-09-11T09:00:02.843Z,4760
2018-09-11T09:01:03.096Z,4748
2018-09-11T09:02:02.575Z,4736
2018-09-11T09:03:03.086Z,4816
2018-09-11T09:04:03.082Z,4732
2018-09-11T09:05:02.568Z,4652
2018-09-11T09:06:02.629Z,4380
2018-09-11T09:07:02.936Z,4188
2018-09-11T09:08:03.086Z,4100
2018-09-11T09:09:02.819Z,4124
2018-09-11T09:10:03.060Z,3992
2018-09-11T09:11:03.066Z,3832
2018-09-11T09:12:02.558Z,3644
2018-09-11T09:13:03.073Z,3568
2018-09-11T09:14:02.808Z,3524
2018-09-11T09:15:02.555Z,3612
2018-09-11T09:16:02.865Z,3572
2018-09-11T09:17:03.058Z,3596
2018-09-11T09:18:02.811Z,3604
2018-09-11T09:19:02.807Z,3596
2018-09-11T09:20:03.066Z,3692
2018-09-11T09:21:03.002Z,3756
2018-09-11T09:22:02.793Z,3852
2018-09-11T09:23:03.055Z,3892
2018-09-11T09:24:02.801Z,3996
2018-09-11T09:25:03.055Z,4060
2018-09-11T09:26:03.048Z,4164
2018-09-11T09:27:03.197Z,4272
2018-09-11T09:28:03.048Z,4248
2018-09-11T09:29:03.042Z,4220
2018-09-11T09:30:03.094Z,4200
2018-09-11T09:31:03.045Z,4200
2018-09-11T09:32:02.531Z,4188
2018-09-11T09:33:02.598Z,4060
2018-09-11T09:34:03.053Z,3856
2018-09-11T09:35:02.786Z,3720
2018-09-11T09:36:03.040Z,3688
2018-09-11T09:37:02.671Z,3712
2018-09-11T09:38:03.035Z,3744
2018-09-11T09:39:03.047Z,3696
2018-09-11T09:40:03.036Z,3596
2018-09-11T09:41:03.040Z,3392
2018-09-11T09:42:03.033Z,3340
2018-09-11T09:43:03.033Z,3352
2018-09-11T09:44:02.665Z,3284
2018-09-11T09:45:03.032Z,3232
2018-09-11T09:46:03.031Z,3164
2018-09-11T09:47:03.031Z,3252
2018-09-11T09:48:03.025Z,3268
2018-09-11T09:49:03.029Z,3368
2018-09-11T09:50:03.026Z,3384
2018-09-11T09:51:03.471Z,3412
2018-09-11T09:52:02.509Z,3404
2018-09-11T09:53:03.031Z,3364
2018-09-11T09:54:03.023Z,3260
2018-09-11T09:55:03.020Z,3284
2018-09-11T09:56:03.020Z,3360
2018-09-11T09:57:02.768Z,3364
2018-09-11T09:58:03.025Z,3316
2018-09-11T09:59:02.775Z,3332
2018-09-11T10:00:02.767Z,3428
2018-09-11T10:01:02.757Z,3384
2018-09-11T10:02:03.029Z,3360
2018-09-11T10:03:03.022Z,3324
2018-09-11T10:04:02.760Z,3308
2018-09-11T10:05:03.064Z,3300
2018-09-11T10:06:02.756Z,3304
2018-09-11T10:07:02.756Z,3352
2018-09-11T10:08:03.011Z,3432
2018-09-11T10:09:02.759Z,3480
2018-09-11T10:10:03.008Z,3496
2018-09-11T10:11:03.016Z,3464
2018-09-11T10:12:03.121Z,3456
2018-09-11T10:13:02.785Z,3428
2018-09-11T10:14:03.015Z,3436
2018-09-11T10:15:02.504Z,3464
2018-09-11T10:16:02.759Z,3524
2018-09-11T10:17:03.016Z,3552
2018-09-11T10:18:02.751Z,3584
2018-09-11T10:19:02.750Z,3620
2018-09-11T10:20:03.012Z,3576
2018-09-11T10:21:02.753Z,3528
2018-09-11T10:22:02.752Z,3572
2018-09-11T10:23:02.754Z,3588
2018-09-11T10:24:03.010Z,3612
2018-09-11T10:25:03.001Z,3604
2018-09-11T10:26:02.498Z,3608
2018-09-11T10:27:03.003Z,3668
2018-09-11T10:28:02.501Z,3700
2018-09-11T10:29:03.008Z,3764
2018-09-11T10:30:03.011Z,3808
2018-09-11T10:31:03.001Z,3864
2018-09-11T10:32:02.746Z,3956
2018-09-11T10:33:02.496Z,4060
2018-09-11T10:34:02.868Z,4124
2018-09-11T10:35:03.018Z,4192
2018-09-11T10:36:02.757Z,4292
2018-09-11T10:37:02.756Z,4440
2018-09-11T10:38:03.016Z,4600
2018-09-11T10:39:02.748Z,4716
2018-09-11T10:40:03.004Z,4740
2018-09-11T10:41:03.008Z,4800
2018-09-11T10:42:02.749Z,4840
2018-09-11T10:43:02.752Z,4928
2018-09-11T10:44:02.235Z,5080
2018-09-11T10:45:03.405Z,5212
2018-09-11T10:46:03.021Z,5416
2018-09-11T10:47:03.002Z,5620
2018-09-11T10:48:02.753Z,5888
2018-09-11T10:49:02.851Z,6112
2018-09-11T10:50:02.749Z,6172
2018-09-11T10:51:02.494Z,6372
2018-09-11T10:52:03.190Z,6428
2018-09-11T10:53:02.754Z,6564
2018-09-11T10:54:02.759Z,6716
2018-09-11T10:55:03.023Z,6704
2018-09-11T10:56:03.009Z,6696
2018-09-11T10:57:02.756Z,6736
2018-09-11T10:58:02.500Z,6796
2018-09-11T10:59:02.748Z,6856
2018-09-11T11:00:02.504Z,6868
2018-09-11T11:01:02.757Z,7172
2018-09-11T11:02:03.013Z,7400
2018-09-11T11:03:02.763Z,7616
2018-09-11T11:04:02.760Z,7920
2018-09-11T11:05:03.021Z,8176
2018-09-11T11:06:02.764Z,8380
2018-09-11T11:07:02.510Z,8832
2018-09-11T11:08:02.783Z,9292
2018-09-11T11:09:02.511Z,9760
2018-09-11T11:10:03.030Z,10068
2018-09-11T11:11:02.768Z,10344
2018-09-11T11:12:03.025Z,10544
2018-09-11T11:13:02.774Z,10632
2018-09-11T11:14:03.034Z,10728
2018-09-11T11:15:03.043Z,10740
2018-09-11T11:16:03.026Z,10716
2018-09-11T11:17:03.258Z,10624
2018-09-11T11:18:02.522Z,10412
2018-09-11T11:19:03.035Z,10184
2018-09-11T11:20:03.037Z,9992
2018-09-11T11:21:03.036Z,9772
2018-09-11T11:22:03.036Z,9468
2018-09-11T11:23:02.791Z,9256
2018-09-11T11:24:02.786Z,9104
2018-09-11T11:25:02.529Z,8948
2018-09-11T11:26:03.046Z,8804
2018-09-11T11:27:03.499Z,8540
2018-09-11T11:28:02.794Z,8152
2018-09-11T11:29:02.530Z,7968
2018-09-11T11:30:02.795Z,7848
2018-09-11T11:31:02.788Z,7660
2018-09-11T11:32:03.054Z,7436
2018-09-11T11:33:02.797Z,7316
2018-09-11T11:34:03.059Z,7152
2018-09-11T11:35:03.060Z,7044
2018-09-11T11:36:03.025Z,6924
2018-09-11T11:37:03.542Z,6816
2018-09-11T11:38:03.123Z,6624
2018-09-11T11:39:03.073Z,6476
2018-09-11T11:40:03.063Z,6332
2018-09-11T11:41:03.084Z,6228
2018-09-11T11:42:02.736Z,6164
2018-09-11T11:43:02.810Z,6076
2018-09-11T11:44:02.812Z,6012
2018-09-11T11:45:02.813Z,5924
2018-09-11T11:46:02.820Z,5832
2018-09-11T11:47:02.555Z,5784
2018-09-11T11:48:03.090Z,5776
2018-09-11T11:49:03.069Z,5788
2018-09-11T11:50:02.551Z,5856
2018-09-11T11:51:03.070Z,5972
2018-09-11T11:52:02.812Z,6076
2018-09-11T11:53:03.073Z,6180
2018-09-11T11:54:03.073Z,6288
2018-09-11T11:55:03.408Z,6404
2018-09-11T11:56:02.816Z,6568
2018-09-11T11:57:03.081Z,6704
2018-09-11T11:58:02.561Z,6896
2018-09-11T11:59:03.086Z,7144
2018-09-11T12:00:02.560Z,7316
2018-09-11T12:01:02.819Z,7520
2018-09-11T12:02:03.526Z,7800
2018-09-11T12:03:03.087Z,8040
2018-09-11T12:04:03.086Z,8264
2018-09-11T12:05:03.075Z,8428
2018-09-11T12:06:03.076Z,8568
2018-09-11T12:07:03.076Z,8748
2018-09-11T12:08:03.192Z,8936
2018-09-11T12:09:03.091Z,9104
2018-09-11T12:10:02.828Z,9212
2018-09-11T12:11:03.089Z,9276
2018-09-11T12:12:02.824Z,9320
2018-09-11T12:13:03.092Z,9320
2018-09-11T12:14:03.085Z,9328
2018-09-11T12:15:02.824Z,9352
2018-09-11T12:16:02.856Z,9380
2018-09-11T12:17:03.443Z,9400
2018-09-11T12:18:02.822Z,9456
2018-09-11T12:19:03.084Z,9600
2018-09-11T12:20:02.833Z,9584
2018-09-11T12:21:02.822Z,9556
2018-09-11T12:22:02.839Z,9628
2018-09-11T12:23:03.093Z,9620
2018-09-11T12:24:03.094Z,9620
2018-09-11T12:25:03.090Z,9632
2018-09-11T12:26:02.838Z,9668
2018-09-11T12:27:02.837Z,9672
2018-09-11T12:28:02.871Z,9772
2018-09-11T12:29:03.159Z,9840
2018-09-11T12:30:02.856Z,9844
2018-09-11T12:31:03.271Z,9800
2018-09-11T12:32:03.091Z,9824
2018-09-11T12:33:02.835Z,9848
2018-09-11T12:34:02.645Z,9884
2018-09-11T12:35:02.906Z,9892
2018-09-11T12:36:03.096Z,9864
2018-09-11T12:37:02.592Z,9828
2018-09-11T12:38:02.851Z,9796
2018-09-11T12:39:02.849Z,9792
2018-09-11T12:40:02.592Z,9704
2018-09-11T12:41:02.849Z,9604
2018-09-11T12:42:02.593Z,9612
2018-09-11T12:43:03.109Z,9656
2018-09-11T12:44:03.113Z,9732
2018-09-11T12:45:02.853Z,9796
2018-09-11T12:46:04.187Z,9860
2018-09-11T12:47:03.152Z,9944
2018-09-11T12:48:05.308Z,9980
2018-09-11T12:49:03.128Z,10044
2018-09-11T12:50:02.864Z,10048
2018-09-11T12:51:02.604Z,10100
2018-09-11T12:52:03.133Z,10132
2018-09-11T12:53:02.610Z,10140
2018-09-11T12:54:03.127Z,10112
2018-09-11T12:55:03.126Z,10088
2018-09-11T12:56:02.876Z,10040
2018-09-11T12:57:03.133Z,9852
2018-09-11T12:58:03.145Z,9692
2018-09-11T12:59:03.132Z,9608
2018-09-11T13:00:03.136Z,9576
2018-09-11T13:01:03.131Z,9556
2018-09-11T13:02:03.141Z,9452
2018-09-11T13:03:02.629Z,9304
2018-09-11T13:04:03.142Z,9180
2018-09-11T13:05:03.141Z,9012
2018-09-11T13:06:03.148Z,8972
2018-09-11T13:07:03.145Z,8928
2018-09-11T13:08:02.636Z,8924
2018-09-11T13:09:03.342Z,8948
2018-09-11T13:10:02.920Z,8992
2018-09-11T13:11:03.170Z,9016
2018-09-11T13:12:03.156Z,9028
2018-09-11T13:13:03.165Z,9052
2018-09-11T13:14:02.900Z,9004
2018-09-11T13:15:03.323Z,8896
2018-09-11T13:16:02.908Z,8776
2018-09-11T13:17:03.171Z,8676
2018-09-11T13:18:03.172Z,8568
2018-09-11T13:19:03.173Z,8440
2018-09-11T13:20:02.650Z,8292
2018-09-11T13:21:03.170Z,8160
2018-09-11T13:22:03.175Z,7988
2018-09-11T13:23:02.659Z,7832
2018-09-11T13:24:03.175Z,7676
2018-09-11T13:25:03.174Z,7580
2018-09-11T13:26:03.179Z,7456
2018-09-11T13:27:02.929Z,7368
2018-09-11T13:28:03.178Z,7304
2018-09-11T13:29:03.184Z,7268
2018-09-11T13:30:03.188Z,7216
2018-09-11T13:31:02.924Z,7140
2018-09-11T13:32:03.180Z,7072
2018-09-11T13:33:03.189Z,7000
2018-09-11T13:34:03.339Z,6896
2018-09-11T13:35:03.192Z,6800
2018-09-11T13:36:02.940Z,6656
2018-09-11T13:37:02.939Z,6660
2018-09-11T13:38:03.192Z,6560
2018-09-11T13:39:03.201Z,6388
2018-09-11T13:40:03.199Z,6272
2018-09-11T13:41:03.206Z,6180
2018-09-11T13:42:03.206Z,6076
2018-09-11T13:43:03.201Z,5992
2018-09-11T13:44:02.946Z,5936
2018-09-11T13:45:03.215Z,5892
2018-09-11T13:46:03.211Z,5876